Time;durP1;ratioP1;P1;durP2;ratioP2;P2;SDS_P1;SDS_P2;PMS_P1;PMS_P2;Temp;Humidity;BMP_temperature;BMP_pressure;BME280_temperature;BME280_humidity;BME280_pressure;Samples;Min_cycle;Max_cycle;Signal;HPM_P1;HPM_P2
2023/05/23 00:00:41;;;;;;;;;;;;;;;22.76;nan;101337.97;5044610;28;20350;-84
2023/05/23 00:03:07;;;;;;;;;;;;;;;22.73;nan;101339.41;5047238;28;20403;-84
2023/05/23 00:05:32;;;;;;;;;;;;;;;22.68;nan;101325.09;5044467;28;19920;-84
2023/05/23 00:07:58;;;;;;;;;;;;;;;22.61;nan;101328.25;5047103;28;19960;-84
2023/05/23 00:10:24;;;;;;;;;;;;;;;22.54;nan;101328.72;5038198;28;19927;-83
2023/05/23 00:12:49;;;;;;;;;;;;;;;22.47;nan;101328.38;5048492;28;19921;-84
2023/05/23 00:15:14;;;;;;;;;;;;;;;22.37;nan;101323.19;5050753;28;19932;-84
2023/05/23 00:17:40;;;;;;;;;;;;;;;22.32;nan;101315.13;5045597;28;19970;-84
2023/05/23 00:20:08;;;;;;;;;;;;;;;22.29;nan;101313.84;5046270;28;20335;-85
2023/05/23 00:22:34;;;;;;;;;;;;;;;22.28;nan;101314.16;5042477;28;20303;-84
2023/05/23 00:25:00;;;;;;;;;;;;;;;22.24;nan;101319.41;5040702;28;19929;-84
2023/05/23 00:27:26;;;;;;;;;;;;;;;22.19;nan;101316.00;5038282;28;19924;-84
2023/05/23 00:29:51;;;;;;;;;;;;;;;22.18;nan;101317.13;5043581;28;19971;-84
2023/05/23 00:32:16;;;;;;;;;;;;;;;22.14;nan;101306.03;5045126;28;19920;-84
2023/05/23 00:34:43;;;;;;;;;;;;;;;22.09;nan;101305.38;5045094;28;19924;-83
2023/05/23 00:37:08;;;;;;;;;;;;;;;22.05;nan;101310.63;5044888;28;19921;-84
2023/05/23 00:39:33;;;;;;;;;;;;;;;22.00;nan;101303.34;5046524;28;19921;-84
2023/05/23 00:42:02;;;;;;;;;;;;;;;21.95;nan;101314.41;5043606;28;19928;-83
2023/05/23 00:44:28;;;;;;;;;;;;;;;21.93;nan;101308.44;5041215;28;20015;-84
2023/05/23 00:46:55;;;;;;;;;;;;;;;21.89;nan;101312.09;5048337;28;20007;-84
2023/05/23 00:49:20;;;;;;;;;;;;;;;21.83;nan;101314.16;5038776;28;19921;-84
2023/05/23 00:51:48;;;;;;;;;;;;;;;21.77;nan;101312.66;5052443;28;19921;-84
2023/05/23 00:54:14;;;;;;;;;;;;;;;21.71;nan;101311.97;5044497;28;19967;-84
2023/05/23 00:56:42;;;;;;;;;;;;;;;21.70;nan;101310.34;5050318;28;19975;-84
2023/05/23 00:59:08;;;;;;;;;;;;;;;21.68;nan;101306.31;5040196;28;19962;-84
2023/05/23 01:01:35;;;;;;;;;;;;;;;21.67;nan;101304.72;5042836;28;20343;-84
2023/05/23 01:04:01;;;;;;;;;;;;;;;21.67;nan;101302.00;5046489;28;19963;-83
2023/05/23 01:06:29;;;;;;;;;;;;;;;21.63;nan;101299.06;5045714;28;19917;-84
2023/05/23 01:08:54;;;;;;;;;;;;;;;21.57;nan;101294.06;5043913;28;19936;-84
2023/05/23 01:11:24;;;;;;;;;;;;;;;21.48;nan;101298.63;5042062;28;19925;-84
2023/05/23 01:14:03;;;;;;;;;;;;;;;21.44;nan;101297.63;5047284;28;19917;-84
2023/05/23 01:16:49;;;;;;;;;;;;;;;21.42;nan;101296.03;5059170;28;20004;-84
2023/05/23 01:19:34;;;;;;;;;;;;;;;21.40;nan;101295.53;5043565;28;19917;-84
2023/05/23 01:22:05;;;;;;;;;;;;;;;21.39;nan;101285.75;5039364;28;20144;-84
2023/05/23 01:24:50;;;;;;;;;;;;;;;21.39;nan;101287.66;5045029;28;20019;-83
2023/05/23 01:27:26;;;;;;;;;;;;;;;21.34;nan;101285.84;5044148;28;20447;-84
2023/05/23 01:29:55;;;;;;;;;;;;;;;21.33;nan;101288.88;5040771;28;20027;-84
2023/05/23 01:32:22;;;;;;;;;;;;;;;21.32;nan;101289.97;5040751;28;20351;-84
2023/05/23 01:34:48;;;;;;;;;;;;;;;21.32;nan;101281.81;5048585;28;20384;-84
2023/05/23 01:37:17;;;;;;;;;;;;;;;21.29;nan;101287.88;5047518;28;19942;-84
2023/05/23 01:39:42;;;;;;;;;;;;;;;21.26;nan;101286.56;5045182;28;19932;-84
2023/05/23 01:42:08;;;;;;;;;;;;;;;21.23;nan;101284.44;5044635;28;19917;-84
2023/05/23 01:44:34;;;;;;;;;;;;;;;21.23;nan;101276.25;5044064;28;19975;-84
2023/05/23 01:47:01;;;;;;;;;;;;;;;21.22;nan;101276.56;5046560;28;20011;-84
2023/05/23 01:49:27;;;;;;;;;;;;;;;21.18;nan;101281.81;5035037;28;19917;-83
2023/05/23 01:51:53;;;;;;;;;;;;;;;21.16;nan;101269.59;5042667;28;20327;-84
2023/05/23 01:54:18;;;;;;;;;;;;;;;21.14;nan;101275.34;5043413;28;19920;-84
2023/05/23 01:56:44;;;;;;;;;;;;;;;21.08;nan;101266.50;5045539;28;19924;-84
2023/05/23 01:59:10;;;;;;;;;;;;;;;21.08;nan;101260.25;5041525;28;19999;-84
2023/05/23 02:01:36;;;;;;;;;;;;;;;21.05;nan;101263.59;5046076;28;20442;-84
2023/05/23 02:04:02;;;;;;;;;;;;;;;21.01;nan;101259.88;5047797;28;20014;-84
2023/05/23 02:06:27;;;;;;;;;;;;;;;20.98;nan;101263.19;5039989;28;20436;-84
2023/05/23 02:08:53;;;;;;;;;;;;;;;20.95;nan;101266.50;5047661;28;19931;-84
2023/05/23 02:11:18;;;;;;;;;;;;;;;20.94;nan;101265.72;5041883;28;19956;-84
2023/05/23 02:13:43;;;;;;;;;;;;;;;20.93;nan;101266.03;5048707;28;19927;-84
2023/05/23 02:16:09;;;;;;;;;;;;;;;20.89;nan;101256.84;5047696;28;20342;-84
2023/05/23 02:18:36;;;;;;;;;;;;;;;20.86;nan;101255.53;5039181;28;20399;-84
2023/05/23 02:21:03;;;;;;;;;;;;;;;20.85;nan;101261.31;5039538;28;19924;-84
2023/05/23 02:23:28;;;;;;;;;;;;;;;20.81;nan;101259.16;5046693;28;19920;-83
2023/05/23 02:25:53;;;;;;;;;;;;;;;20.79;nan;101252.41;5047259;28;19929;-84
2023/05/23 02:28:19;;;;;;;;;;;;;;;20.76;nan;101264.72;5046708;28;19924;-84
2023/05/23 02:30:45;;;;;;;;;;;;;;;20.74;nan;101256.06;5043282;28;20470;-84
2023/05/23 02:33:10;;;;;;;;;;;;;;;20.72;nan;101252.81;5047509;28;19948;-84
2023/05/23 02:35:35;;;;;;;;;;;;;;;20.73;nan;101248.19;5045347;28;19924;-84
2023/05/23 02:38:01;;;;;;;;;;;;;;;20.70;nan;101246.88;5045504;28;20004;-84
2023/05/23 02:40:26;;;;;;;;;;;;;;;20.68;nan;101240.13;5042232;28;19938;-83
2023/05/23 02:42:51;;;;;;;;;;;;;;;20.65;nan;101247.00;5043603;28;19996;-84
2023/05/23 02:45:17;;;;;;;;;;;;;;;20.62;nan;101244.06;5046690;28;20369;-84
2023/05/23 02:47:42;;;;;;;;;;;;;;;20.58;nan;101243.06;5041421;28;19927;-84
2023/05/23 02:50:08;;;;;;;;;;;;;;;20.51;nan;101236.09;5045060;28;19916;-84
2023/05/23 02:52:33;;;;;;;;;;;;;;;20.47;nan;101234.28;5048696;28;20011;-84
2023/05/23 02:54:58;;;;;;;;;;;;;;;20.46;nan;101232.66;5047032;28;20347;-84
2023/05/23 02:57:24;;;;;;;;;;;;;;;20.44;nan;101240.31;5038136;28;19929;-84
2023/05/23 02:59:50;;;;;;;;;;;;;;;20.41;nan;101224.59;5041946;28;19916;-83
2023/05/23 03:02:15;;;;;;;;;;;;;;;20.42;nan;101228.94;5043732;28;19913;-84
2023/05/23 03:04:40;;;;;;;;;;;;;;;20.42;nan;101227.00;5043875;28;20020;-84
2023/05/23 03:07:06;;;;;;;;;;;;;;;20.45;nan;101228.31;5052142;28;19916;-84
2023/05/23 03:09:32;;;;;;;;;;;;;;;20.45;nan;101226.41;5042056;28;19931;-84
2023/05/23 03:11:57;;;;;;;;;;;;;;;20.45;nan;101222.88;5052629;28;19916;-84
2023/05/23 03:14:23;;;;;;;;;;;;;;;20.44;nan;101221.28;5048869;28;19921;-84
2023/05/23 03:16:48;;;;;;;;;;;;;;;20.45;nan;101222.88;5049367;28;19921;-83
2023/05/23 03:19:13;;;;;;;;;;;;;;;20.46;nan;101217.13;5051887;28;19966;-84
2023/05/23 03:21:39;;;;;;;;;;;;;;;20.49;nan;101219.28;5053332;28;19917;-83
2023/05/23 03:24:05;;;;;;;;;;;;;;;20.51;nan;101208.06;5050317;28;19920;-83
2023/05/23 03:26:31;;;;;;;;;;;;;;;20.52;nan;101209.69;5043683;28;20198;-83
2023/05/23 03:28:56;;;;;;;;;;;;;;;20.54;nan;101212.91;5046768;28;19917;-83
2023/05/23 03:31:22;;;;;;;;;;;;;;;20.56;nan;101210.69;5051356;28;19999;-84
2023/05/23 03:33:47;;;;;;;;;;;;;;;20.58;nan;101211.19;5052516;28;19920;-84
2023/05/23 03:36:12;;;;;;;;;;;;;;;20.63;nan;101210.25;5047588;28;20297;-84
2023/05/23 03:38:37;;;;;;;;;;;;;;;20.67;nan;101209.38;5050691;28;19917;-83
2023/05/23 03:41:03;;;;;;;;;;;;;;;20.71;nan;101213.09;5052438;28;20375;-83
2023/05/23 03:43:28;;;;;;;;;;;;;;;20.76;nan;101212.16;5050479;28;19924;-84
2023/05/23 03:45:53;;;;;;;;;;;;;;;20.79;nan;101215.09;5051498;28;20499;-84
2023/05/23 03:48:19;;;;;;;;;;;;;;;20.86;nan;101203.00;5053573;28;19920;-84
2023/05/23 03:50:44;;;;;;;;;;;;;;;20.91;nan;101206.41;5051960;28;20043;-84
2023/05/23 03:53:09;;;;;;;;;;;;;;;20.96;nan;101214.44;5045375;28;19924;-84
2023/05/23 03:55:35;;;;;;;;;;;;;;;21.00;nan;101207.28;5048861;28;19917;-84
2023/05/23 03:58:00;;;;;;;;;;;;;;;21.08;nan;101211.19;5044964;28;20575;-83
2023/05/23 04:00:25;;;;;;;;;;;;;;;21.16;nan;101202.28;5047143;28;19917;-84
2023/05/23 04:02:51;;;;;;;;;;;;;;;21.24;nan;101214.38;5048888;28;19928;-84
2023/05/23 04:05:16;;;;;;;;;;;;;;;21.31;nan;101212.06;5050988;28;19925;-84
2023/05/23 04:07:42;;;;;;;;;;;;;;;21.40;nan;101219.19;5052880;28;20016;-84
2023/05/23 04:10:08;;;;;;;;;;;;;;;21.48;nan;101220.38;5049694;28;19921;-84
2023/05/23 04:12:34;;;;;;;;;;;;;;;21.51;nan;101213.50;5040997;28;19924;-84
2023/05/23 04:14:59;;;;;;;;;;;;;;;21.52;nan;101209.63;5043337;28;19962;-84
2023/05/23 04:17:29;;;;;;;;;;;;;;;21.52;nan;101213.16;5048751;28;19920;-84
2023/05/23 04:19:55;;;;;;;;;;;;;;;21.55;nan;101217.22;5052194;28;19917;-84
2023/05/23 04:22:20;;;;;;;;;;;;;;;21.59;nan;101215.47;5048256;28;19924;-84
2023/05/23 04:24:45;;;;;;;;;;;;;;;21.62;nan;101212.94;5043329;28;19925;-84
2023/05/23 04:27:12;;;;;;;;;;;;;;;21.66;nan;101224.81;5047259;28;19924;-84
2023/05/23 04:29:38;;;;;;;;;;;;;;;21.71;nan;101219.22;5050546;28;19923;-83
2023/05/23 04:32:05;;;;;;;;;;;;;;;21.74;nan;101217.84;5046778;28;20351;-83
2023/05/23 04:34:32;;;;;;;;;;;;;;;21.75;nan;101222.16;5046141;28;19923;-84
2023/05/23 04:37:00;;;;;;;;;;;;;;;21.81;nan;101229.09;5040000;28;19924;-84
2023/05/23 04:39:26;;;;;;;;;;;;;;;21.85;nan;101219.16;5041489;28;20384;-84
2023/05/23 04:41:53;;;;;;;;;;;;;;;21.86;nan;101217.25;5043581;28;20055;-84
2023/05/23 04:44:18;;;;;;;;;;;;;;;21.89;nan;101213.88;5042755;28;20067;-84
2023/05/23 04:46:44;;;;;;;;;;;;;;;21.96;nan;101209.59;5044186;28;20561;-84
2023/05/23 04:49:10;;;;;;;;;;;;;;;22.06;nan;101213.19;5044764;28;19916;-84
2023/05/23 04:51:35;;;;;;;;;;;;;;;22.13;nan;101213.56;5040196;28;20014;-83
2023/05/23 04:54:01;;;;;;;;;;;;;;;22.19;nan;101201.38;5040491;28;19925;-84
2023/05/23 04:56:27;;;;;;;;;;;;;;;22.24;nan;101198.50;5042921;28;20000;-83
2023/05/23 04:58:52;;;;;;;;;;;;;;;22.28;nan;101199.50;5047243;28;19923;-84
2023/05/23 05:01:18;;;;;;;;;;;;;;;22.34;nan;101198.22;5041942;28;19928;-84
2023/05/23 05:03:43;;;;;;;;;;;;;;;22.40;nan;101207.88;5043647;28;19987;-84
2023/05/23 05:06:09;;;;;;;;;;;;;;;22.40;nan;101202.41;5042847;28;19920;-84
2023/05/23 05:08:35;;;;;;;;;;;;;;;22.39;nan;101197.28;5045825;28;20018;-84
2023/05/23 05:11:00;;;;;;;;;;;;;;;22.36;nan;101196.00;5042731;28;20486;-84
2023/05/23 05:13:25;;;;;;;;;;;;;;;22.38;nan;101182.03;5039819;28;19917;-84
2023/05/23 05:15:51;;;;;;;;;;;;;;;22.44;nan;101187.03;5042700;28;19920;-84
2023/05/23 05:18:17;;;;;;;;;;;;;;;22.51;nan;101192.03;5047188;28;19931;-85
2023/05/23 05:20:42;;;;;;;;;;;;;;;22.54;nan;101188.66;5043755;28;20403;-84
2023/05/23 05:23:08;;;;;;;;;;;;;;;22.55;nan;101193.78;5043799;28;20249;-85
2023/05/23 05:25:35;;;;;;;;;;;;;;;22.58;nan;101193.16;5041673;28;19924;-84
2023/05/23 05:28:04;;;;;;;;;;;;;;;22.63;nan;101191.41;5044639;28;19924;-85
2023/05/23 05:30:30;;;;;;;;;;;;;;;22.66;nan;101188.03;5045548;28;19916;-84
2023/05/23 05:32:56;;;;;;;;;;;;;;;22.71;nan;101185.16;5044929;28;19923;-84
2023/05/23 05:35:22;;;;;;;;;;;;;;;22.74;nan;101189.97;5048356;28;20304;-85
2023/05/23 05:37:47;;;;;;;;;;;;;;;22.78;nan;101190.94;5042319;28;20152;-84
2023/05/23 05:40:12;;;;;;;;;;;;;;;22.82;nan;101183.75;5047350;28;19932;-84
2023/05/23 05:42:38;;;;;;;;;;;;;;;22.86;nan;101188.25;5047214;28;19917;-84
2023/05/23 05:45:03;;;;;;;;;;;;;;;22.90;nan;101178.28;5049351;28;20000;-84
2023/05/23 05:47:28;;;;;;;;;;;;;;;22.94;nan;101183.91;5048671;28;20008;-84
2023/05/23 05:49:54;;;;;;;;;;;;;;;22.97;nan;101177.00;5044298;28;20011;-84
2023/05/23 05:52:19;;;;;;;;;;;;;;;23.02;nan;101177.66;5048329;28;19921;-84
2023/05/23 05:54:44;;;;;;;;;;;;;;;23.07;nan;101180.22;5047102;28;19958;-84
2023/05/23 05:57:10;;;;;;;;;;;;;;;23.11;nan;101177.66;5045603;28;19939;-85
2023/05/23 05:59:35;;;;;;;;;;;;;;;23.12;nan;101174.59;5044058;28;20387;-84
2023/05/23 06:02:00;;;;;;;;;;;;;;;23.16;nan;101180.22;5046490;28;20180;-84
2023/05/23 06:04:26;;;;;;;;;;;;;;;23.21;nan;101186.34;5040562;28;19925;-84
2023/05/23 06:06:51;;;;;;;;;;;;;;;23.28;nan;101183.13;5048559;28;19920;-84
2023/05/23 06:09:16;;;;;;;;;;;;;;;23.32;nan;101175.06;5043596;28;19924;-84
2023/05/23 06:11:42;;;;;;;;;;;;;;;23.35;nan;101177.19;5046891;28;19925;-84
2023/05/23 06:14:07;;;;;;;;;;;;;;;23.37;nan;101167.53;5043441;28;19924;-85
2023/05/23 06:16:32;;;;;;;;;;;;;;;23.40;nan;101174.28;5048139;28;20003;-84
2023/05/23 06:18:58;;;;;;;;;;;;;;;23.40;nan;101164.13;5047085;28;19917;-84
2023/05/23 06:21:23;;;;;;;;;;;;;;;23.39;nan;101172.66;5042593;28;19943;-84
2023/05/23 06:23:48;;;;;;;;;;;;;;;23.42;nan;101167.34;5048006;28;19924;-84
2023/05/23 06:26:14;;;;;;;;;;;;;;;23.51;nan;101170.03;5043841;28;19966;-84
2023/05/23 06:28:39;;;;;;;;;;;;;;;23.61;nan;101167.00;5046531;28;20359;-84
2023/05/23 06:31:04;;;;;;;;;;;;;;;23.71;nan;101163.94;5045240;28;20296;-84
2023/05/23 06:33:30;;;;;;;;;;;;;;;23.83;nan;101159.69;5046749;28;20434;-84
2023/05/23 06:35:55;;;;;;;;;;;;;;;23.90;nan;101165.50;5046327;28;19920;-85
2023/05/23 06:38:21;;;;;;;;;;;;;;;23.96;nan;101159.50;5046530;28;19924;-84
2023/05/23 06:40:46;;;;;;;;;;;;;;;24.05;nan;101162.19;5043403;28;19916;-84
2023/05/23 06:43:11;;;;;;;;;;;;;;;24.14;nan;101160.22;5044437;28;19986;-84
2023/05/23 06:45:37;;;;;;;;;;;;;;;24.21;nan;101155.03;5045685;28;20002;-85
2023/05/23 06:48:02;;;;;;;;;;;;;;;24.24;nan;101148.91;5042159;28;19955;-84
2023/05/23 06:50:28;;;;;;;;;;;;;;;24.30;nan;101158.56;5045549;28;19924;-84
2023/05/23 06:52:54;;;;;;;;;;;;;;;24.37;nan;101158.84;5040935;28;20006;-83
2023/05/23 06:55:19;;;;;;;;;;;;;;;24.41;nan;101156.22;5040430;28;19924;-84
2023/05/23 06:57:45;;;;;;;;;;;;;;;24.44;nan;101161.06;5042141;28;19920;-85
2023/05/23 07:00:12;;;;;;;;;;;;;;;24.47;nan;101162.34;5041813;28;19970;-84
2023/05/23 07:02:37;;;;;;;;;;;;;;;24.48;nan;101155.72;5044874;28;20365;-84
2023/05/23 07:05:03;;;;;;;;;;;;;;;24.53;nan;101155.53;5042141;28;19932;-84
2023/05/23 07:07:28;;;;;;;;;;;;;;;24.59;nan;101154.19;5042266;28;19928;-85
2023/05/23 07:09:53;;;;;;;;;;;;;;;24.66;nan;101154.47;5043176;28;19917;-85
2023/05/23 07:12:19;;;;;;;;;;;;;;;24.71;nan;101152.34;5044741;28;19920;-84
2023/05/23 07:14:44;;;;;;;;;;;;;;;24.77;nan;101150.19;5043183;28;19921;-85
2023/05/23 07:17:10;;;;;;;;;;;;;;;24.85;nan;101154.81;5044239;28;20308;-85
2023/05/23 07:19:35;;;;;;;;;;;;;;;24.93;nan;101142.16;5044848;28;19924;-85
2023/05/23 07:22:00;;;;;;;;;;;;;;;25.02;nan;101145.69;5041673;28;20226;-84
2023/05/23 07:24:26;;;;;;;;;;;;;;;25.08;nan;101143.53;5043282;28;20019;-84
2023/05/23 07:26:51;;;;;;;;;;;;;;;25.15;nan;101143.81;5043083;28;20015;-85
2023/05/23 07:29:16;;;;;;;;;;;;;;;25.23;nan;101132.72;5042968;28;19924;-84
2023/05/23 07:31:42;;;;;;;;;;;;;;;25.30;nan;101135.72;5044889;28;20038;-85
2023/05/23 07:34:07;;;;;;;;;;;;;;;25.39;nan;101138.38;5042801;28;19920;-85
2023/05/23 07:36:34;;;;;;;;;;;;;;;25.48;nan;101133.59;5044015;28;19921;-85
2023/05/23 07:39:00;;;;;;;;;;;;;;;25.57;nan;101128.84;5043128;28;19970;-84
2023/05/23 07:41:25;;;;;;;;;;;;;;;25.71;nan;101134.03;5043025;28;19917;-85
2023/05/23 07:43:50;;;;;;;;;;;;;;;25.85;nan;101130.94;5040270;28;20027;-85
2023/05/23 07:46:16;;;;;;;;;;;;;;;25.96;nan;101134.06;5035658;28;19924;-84
2023/05/23 07:48:41;;;;;;;;;;;;;;;26.07;nan;101136.00;5041385;28;19920;-84
2023/05/23 07:51:07;;;;;;;;;;;;;;;26.17;nan;101137.47;5043119;28;19917;-84
2023/05/23 07:53:32;;;;;;;;;;;;;;;26.20;nan;101140.34;5047939;28;19975;-85
2023/05/23 07:55:57;;;;;;;;;;;;;;;26.27;nan;101133.47;5048201;28;19916;-84
2023/05/23 07:58:23;;;;;;;;;;;;;;;26.34;nan;101129.00;5047938;28;19925;-84
2023/05/23 08:00:49;;;;;;;;;;;;;;;26.44;nan;101133.25;5042464;28;19956;-84
2023/05/23 08:03:15;;;;;;;;;;;;;;;26.53;nan;101131.16;5046797;28;20412;-85
2023/05/23 08:05:41;;;;;;;;;;;;;;;26.65;nan;101133.91;5048280;28;20340;-84
2023/05/23 08:08:06;;;;;;;;;;;;;;;26.70;nan;101136.41;5048485;28;19976;-83
2023/05/23 08:10:31;;;;;;;;;;;;;;;26.73;nan;101132.94;5049806;28;19921;-85
2023/05/23 08:12:59;;;;;;;;;;;;;;;26.72;nan;101134.09;5047395;28;19921;-85
2023/05/23 08:15:24;;;;;;;;;;;;;;;26.67;nan;101137.09;5063962;28;19917;-86
2023/05/23 08:17:50;;;;;;;;;;;;;;;26.66;nan;101140.19;5047807;28;19921;-84
2023/05/23 08:20:15;;;;;;;;;;;;;;;26.73;nan;101141.19;5046725;28;19925;-85
2023/05/23 08:22:40;;;;;;;;;;;;;;;26.78;nan;101140.97;5048549;28;19924;-86
2023/05/23 08:25:06;;;;;;;;;;;;;;;26.76;nan;101142.47;5047315;28;19927;-86
2023/05/23 08:27:32;;;;;;;;;;;;;;;26.78;nan;101143.72;5045402;28;19986;-86
2023/05/23 08:29:58;;;;;;;;;;;;;;;26.78;nan;101143.72;5049285;28;19956;-86
2023/05/23 08:32:23;;;;;;;;;;;;;;;26.87;nan;101138.06;5047565;28;19964;-86
2023/05/23 08:34:49;;;;;;;;;;;;;;;26.99;nan;101140.78;5041217;28;19924;-85
2023/05/23 08:37:14;;;;;;;;;;;;;;;27.19;nan;101136.25;5047759;28;19924;-85
2023/05/23 08:39:40;;;;;;;;;;;;;;;27.45;nan;101143.22;5049077;28;19924;-86
2023/05/23 08:42:05;;;;;;;;;;;;;;;27.44;nan;101144.38;5047057;28;19970;-85
2023/05/23 08:44:31;;;;;;;;;;;;;;;27.40;nan;101145.09;5047458;28;19920;-85
2023/05/23 08:46:59;;;;;;;;;;;;;;;27.48;nan;101148.03;5047929;28;19966;-85
2023/05/23 08:49:25;;;;;;;;;;;;;;;27.41;nan;101148.63;5048206;28;19962;-85
2023/05/23 08:51:54;;;;;;;;;;;;;;;27.39;nan;101149.00;5046673;28;19928;-84
2023/05/23 08:54:21;;;;;;;;;;;;;;;27.45;nan;101140.47;5046320;28;19921;-86
2023/05/23 08:56:46;;;;;;;;;;;;;;;27.47;nan;101149.16;5047248;28;19916;-86
2023/05/23 08:59:12;;;;;;;;;;;;;;;27.42;nan;101154.94;5047738;28;19917;-86
2023/05/23 09:01:38;;;;;;;;;;;;;;;27.46;nan;101158.56;5047372;28;19974;-86
2023/05/23 09:04:05;;;;;;;;;;;;;;;27.49;nan;101155.94;5046922;28;19925;-86
2023/05/23 09:06:33;;;;;;;;;;;;;;;27.51;nan;101156.38;5047973;28;19917;-87
2023/05/23 09:08:59;;;;;;;;;;;;;;;27.47;nan;101160.19;5050385;28;19923;-86
2023/05/23 09:11:24;;;;;;;;;;;;;;;27.39;nan;101160.00;5047651;28;19917;-86
2023/05/23 09:13:50;;;;;;;;;;;;;;;27.37;nan;101165.06;5044002;28;19921;-86
2023/05/23 09:16:16;;;;;;;;;;;;;;;27.32;nan;101162.56;5044348;28;19917;-86
2023/05/23 09:18:43;;;;;;;;;;;;;;;27.44;nan;101175.44;5046838;28;19943;-86
2023/05/23 09:21:09;;;;;;;;;;;;;;;27.47;nan;101171.19;5043989;28;20498;-86
2023/05/23 09:23:35;;;;;;;;;;;;;;;27.57;nan;101162.44;5046661;28;21285;-86
2023/05/23 09:26:04;;;;;;;;;;;;;;;27.66;nan;101168.59;5047373;28;20002;-86
2023/05/23 09:28:31;;;;;;;;;;;;;;;27.68;nan;101161.59;5046424;28;19917;-86
2023/05/23 09:30:58;;;;;;;;;;;;;;;27.65;nan;101167.81;5048188;28;19921;-85
2023/05/23 09:33:27;;;;;;;;;;;;;;;27.57;nan;101165.97;5046233;28;19982;-85
2023/05/23 09:35:53;;;;;;;;;;;;;;;27.61;nan;101168.81;5043812;28;20368;-85
2023/05/23 09:38:18;;;;;;;;;;;;;;;27.68;nan;101169.06;5045598;28;20418;-84
2023/05/23 09:40:44;;;;;;;;;;;;;;;27.75;nan;101169.22;5062559;28;19920;-83
2023/05/23 09:43:09;;;;;;;;;;;;;;;27.78;nan;101171.25;5045657;28;20175;-84
2023/05/23 09:45:35;;;;;;;;;;;;;;;27.83;nan;101171.03;5044966;28;19975;-84
2023/05/23 09:48:00;;;;;;;;;;;;;;;27.91;nan;101164.53;5044751;28;19924;-84
2023/05/23 09:50:30;;;;;;;;;;;;;;;27.94;nan;101169.31;5046597;28;19920;-84
2023/05/23 09:52:56;;;;;;;;;;;;;;;27.97;nan;101165.84;5051031;28;19916;-85
2023/05/23 09:55:21;;;;;;;;;;;;;;;27.88;nan;101173.50;5046087;28;19927;-86
2023/05/23 09:57:49;;;;;;;;;;;;;;;27.90;nan;101176.69;5041202;28;20453;-86
2023/05/23 10:00:15;;;;;;;;;;;;;;;27.89;nan;101175.09;5047641;28;19921;-86
2023/05/23 10:02:47;;;;;;;;;;;;;;;28.02;nan;101166.75;5044772;28;19920;-85
2023/05/23 10:05:20;;;;;;;;;;;;;;;28.15;nan;101165.47;5046952;28;19971;-86
2023/05/23 10:07:45;;;;;;;;;;;;;;;28.28;nan;101172.53;5046326;28;20163;-86
2023/05/23 10:10:11;;;;;;;;;;;;;;;28.37;nan;101170.38;5042048;28;19962;-86
2023/05/23 10:12:36;;;;;;;;;;;;;;;28.51;nan;101180.91;5046365;28;19986;-86
2023/05/23 10:15:03;;;;;;;;;;;;;;;28.66;nan;101187.56;5047072;28;19920;-86
2023/05/23 10:17:49;;;;;;;;;;;;;;;28.73;nan;101177.50;5045885;28;19921;-84
2023/05/23 10:20:15;;;;;;;;;;;;;;;28.80;nan;101179.59;5039322;28;19920;-84
2023/05/23 10:22:41;;;;;;;;;;;;;;;28.95;nan;101173.25;5039645;28;19931;-84
2023/05/23 10:25:10;;;;;;;;;;;;;;;29.10;nan;101183.44;5042903;28;20340;-84
2023/05/23 10:27:38;;;;;;;;;;;;;;;29.13;nan;101174.41;5044327;28;19925;-85
2023/05/23 10:30:05;;;;;;;;;;;;;;;28.99;nan;101181.59;5045852;28;19931;-85
2023/05/23 10:32:31;;;;;;;;;;;;;;;28.70;nan;101191.19;5041097;28;19921;-87
2023/05/23 10:34:56;;;;;;;;;;;;;;;28.50;nan;101182.88;5042606;28;19959;-87
2023/05/23 10:37:26;;;;;;;;;;;;;;;28.43;nan;101182.72;5036711;28;20244;-87
2023/05/23 10:39:57;;;;;;;;;;;;;;;28.41;nan;101198.81;5043859;28;20424;-87
2023/05/23 10:42:25;;;;;;;;;;;;;;;28.29;nan;101191.44;5042638;28;19971;-86
2023/05/23 10:44:51;;;;;;;;;;;;;;;28.17;nan;101190.72;5043357;28;20400;-86
2023/05/23 10:47:29;;;;;;;;;;;;;;;28.07;nan;101191.25;5047184;28;19931;-86
2023/05/23 10:49:54;;;;;;;;;;;;;;;27.99;nan;101191.06;5045410;28;20019;-86
2023/05/23 10:52:22;;;;;;;;;;;;;;;28.08;nan;101184.59;5044586;28;20356;-86
2023/05/23 10:54:55;;;;;;;;;;;;;;;28.19;nan;101186.47;5044067;28;20001;-86
2023/05/23 10:57:21;;;;;;;;;;;;;;;28.37;nan;101192.44;5043428;28;19938;-86
2023/05/23 10:59:49;;;;;;;;;;;;;;;28.57;nan;101198.78;5043023;28;19923;-86
2023/05/23 11:02:16;;;;;;;;;;;;;;;28.49;nan;101197.81;5047491;28;20054;-86
2023/05/23 11:04:42;;;;;;;;;;;;;;;28.49;nan;101197.03;5042701;28;19944;-85
2023/05/23 11:07:27;;;;;;;;;;;;;;;28.52;nan;101190.78;5045984;28;20344;-86
2023/05/23 11:10:03;;;;;;;;;;;;;;;28.72;nan;101189.66;5040131;28;20452;-87
2023/05/23 11:12:42;;;;;;;;;;;;;;;28.98;nan;101183.56;5049075;28;19931;-86
2023/05/23 11:15:16;;;;;;;;;;;;;;;29.24;nan;101182.09;5047242;28;20062;-87
2023/05/23 11:17:52;;;;;;;;;;;;;;;29.41;nan;101192.69;5045818;28;19943;-86
2023/05/23 11:20:22;;;;;;;;;;;;;;;29.50;nan;101196.06;5048123;28;20376;-87
2023/05/23 11:22:57;;;;;;;;;;;;;;;29.50;nan;101186.97;5049013;28;20007;-86
2023/05/23 11:25:38;;;;;;;;;;;;;;;29.57;nan;101184.34;5049610;28;19920;-86
2023/05/23 11:28:04;;;;;;;;;;;;;;;29.63;nan;101194.72;5054153;28;19956;-86
2023/05/23 11:30:30;;;;;;;;;;;;;;;29.55;nan;101187.47;5051304;28;19944;-86
2023/05/23 11:32:56;;;;;;;;;;;;;;;29.62;nan;101193.09;5054213;28;20671;-87
2023/05/23 11:35:21;;;;;;;;;;;;;;;29.63;nan;101189.22;5055180;28;19913;-87
2023/05/23 11:37:47;;;;;;;;;;;;;;;29.63;nan;101186.44;5052834;28;20008;-87
2023/05/23 11:40:25;;;;;;;;;;;;;;;29.66;nan;101179.38;5056877;28;19917;-87
2023/05/23 11:42:51;;;;;;;;;;;;;;;29.92;nan;101178.63;5051414;28;20273;-87
2023/05/23 11:45:20;;;;;;;;;;;;;;;30.11;nan;101175.81;5052486;28;19983;-86
2023/05/23 11:47:45;;;;;;;;;;;;;;;30.33;nan;101171.41;5053841;28;19921;-86
2023/05/23 11:50:10;;;;;;;;;;;;;;;30.79;nan;101174.88;5053631;28;19916;-87
2023/05/23 11:52:36;;;;;;;;;;;;;;;31.16;nan;101180.47;5052425;28;19917;-86
2023/05/23 11:55:01;;;;;;;;;;;;;;;31.33;nan;101167.25;5054456;28;19920;-87
2023/05/23 11:57:27;;;;;;;;;;;;;;;31.46;nan;101163.81;5053500;28;19925;-87
2023/05/23 11:59:53;;;;;;;;;;;;;;;31.63;nan;101159.63;5050438;28;20437;-86
2023/05/23 12:02:18;;;;;;;;;;;;;;;31.62;nan;101171.09;5054717;28;19970;-87
2023/05/23 12:04:44;;;;;;;;;;;;;;;31.41;nan;101161.38;5051104;28;20250;-87
2023/05/23 12:07:10;;;;;;;;;;;;;;;31.30;nan;101157.72;5052982;28;19921;-87
2023/05/23 12:09:42;;;;;;;;;;;;;;;31.24;nan;101168.34;5053297;28;19921;-86
2023/05/23 12:12:07;;;;;;;;;;;;;;;31.07;nan;101162.59;5052025;28;19921;-86
2023/05/23 12:14:32;;;;;;;;;;;;;;;30.93;nan;101164.00;5066021;28;19917;-86
2023/05/23 12:16:58;;;;;;;;;;;;;;;30.78;nan;101164.19;5052759;28;19920;-87
2023/05/23 12:19:23;;;;;;;;;;;;;;;30.74;nan;101166.91;5053502;28;19920;-87
2023/05/23 12:21:49;;;;;;;;;;;;;;;30.75;nan;101171.28;5047685;28;19925;-85
2023/05/23 12:24:18;;;;;;;;;;;;;;;30.79;nan;101169.34;5053563;28;19966;-85
2023/05/23 12:26:50;;;;;;;;;;;;;;;31.10;nan;101162.63;5051175;28;20393;-85
2023/05/23 12:29:21;;;;;;;;;;;;;;;31.40;nan;101168.09;5052994;28;20491;-86
2023/05/23 12:31:50;;;;;;;;;;;;;;;31.48;nan;101164.25;5050785;28;20403;-86
2023/05/23 12:34:15;;;;;;;;;;;;;;;31.38;nan;101169.66;5050866;28;19917;-85
2023/05/23 12:36:41;;;;;;;;;;;;;;;31.20;nan;101164.72;5050058;28;20050;-86
2023/05/23 12:39:08;;;;;;;;;;;;;;;31.15;nan;101165.03;5051173;28;19916;-86
2023/05/23 12:41:33;;;;;;;;;;;;;;;31.23;nan;101168.69;5051726;28;20287;-86
2023/05/23 12:43:58;;;;;;;;;;;;;;;31.26;nan;101162.44;5052032;28;19925;-87
2023/05/23 12:46:25;;;;;;;;;;;;;;;31.09;nan;101163.00;5051678;28;19912;-87
2023/05/23 12:48:50;;;;;;;;;;;;;;;30.90;nan;101167.53;5051514;28;20400;-87
2023/05/23 12:51:16;;;;;;;;;;;;;;;30.81;nan;101163.44;5049734;28;19959;-86
2023/05/23 12:53:42;;;;;;;;;;;;;;;30.86;nan;101166.66;5050123;28;19916;-86